Pagina principale
METAR-TAF:

METAR-TAF

Aeroporti :

Aeroporto di Christchurch

Christchurch, Nuova Zelanda

latitudine: 43-29S, longitudine: 172-33E, altezza: 38 m

Osservazione

Il bollettino è stato emesso 30 minuti fa, alle 16:30 UTC
Vento 1 kt da est
Temperature 6°C
Umidità 93%
Pressione 1024 hPa
Visibilità: 3600 m
foschia

METAR: NZCH 201630Z AUTO 10001KT 3600 BR SCT003/// OVC045/// 06/05 Q1024 TEMPO 9999

Ora: 05:00 (17:00 UTC)

Previsione

Il bollettino è stato emesso 5 ore e 59 minuti fa, alle 11:01 UTC
Previsione valida dal 20 alle 12 UTC al 21 alle 12 UTC
Vento 5 kt da nord-est
Visibilità 10 km o più
Nubi sparse ad un'altezza di 2000 ft
Nuvoloso ad un'altezza di 4000 ft
Temporaneamente
dal 20 alle 12 UTC al 20 alle 21 UTC
Visibilità: 3000 m
foschia

TAF: NZCH 201101Z 2012/2112 05005KT 9999 SCT020 BKN040 TEMPO 2012/2021 3000 BR

Osservazioni e previsioni meteorologiche di più di 4000 aeroporti (messaggi METAR e TAF).

Le stazioni disponibili sono rappresentate dai dischi gialli e rossi sulla carta.

Puntare il mouse per vedere il nome della stazione.

Clicca sopra per visualizzare le osservazioni e previsioni meteorologiche.

Per cambiare la mappa : fare clic sui pulsanti verdi con una croce nera per ingrandire, il pulsante verde con un trattino per diminuire, o sulla freccia verde per le mappe adiacenti.


METAR-TAF: